Pensacola Naval Air Station/Forrest Sherman field
KNPA : now visible

Airfield :











YOU CAN JOIN US ON...

 
LOGIN :

Register | Disclaimer

   EN    FR    IT 

 









Legend :    VFR   Marginal VFR   IFR   Intensive IFR   Very Intensive IFR
Visi :
Ceiling :
>= 8 km
>= 3000ft
5 to 8 km
1000 to 3000 ft
1500m to 5 km
500 to 1000 ft
800 to 1500m
200 to 500 ft
< 800m
< 200 ft
Symbols :   Thunderstorms  Fog  Heavy snow  Heavy precipitations  Wind > 20 kt






- Airport Elevation : 28 ft


KNPA - Pensacola Naval Air Station/Forrest Sherman field

CURRENT METAR :
  • 280959Z AUTO 23003KT 3SM BR CLR 13/12 A2997 RMK AO2 T01280122

EXPIRED METARs :
  • 280945Z AUTO 00000KT 1 3/4SM BR CLR 13/12 A2996 RMK AO2 T01330122
  • 280932Z AUTO 00000KT 10SM CLR 13/12 A2996 RMK AO2 T01330122
  • 280923Z AUTO 00000KT 2SM BR CLR 13/12 A2996 RMK AO2 T01330122
  • 280856Z AUTO 00000KT 10SM CLR 14/13 A2996 RMK AO2 SLP146 T01390133 53000
  • 280756Z AUTO 00000KT 10SM CLR 16/14 A2996 RMK AO2 SLP146 T01610144

TAF TAF KNPA
Valid from the 28 at 07:00 until the 29 at 07:00 UTC


2807/2907 26010KT 9999 FEW012 510033 QNH2992INS
BECMG 2810/2812 30008KT 9999 SCT008 BKN015 OVC025 510043 QNH2996INS
TEMPO 2812/2817 6000 BR
BECMG 2819/2821 VRB06KT 9999 BKN012 QNH2999INS T17/2812Z T20/2820Z FN00240
KZJX FIR / North America



MET'MAP, your aeronautical weather chart ! - Copyright ORBIFLY December 2007 - Disclaimer

ORBIFLY MET'MAP TEAM :

Programming & Development : Alexandra Zaïnal
Original concept : Baudouin d'Aumeries
Technical & hardware support : Manuel Goepfert
Assistance : Marc-Olivier Méhu




SOURCES & CREDITS :

   NOAA       Earth
Advisory